sensor_id;sensor_type;location;lat;lon;timestamp;temperature;humidity
37956;DHT22;23776;51.592;7.180;2023-07-31T00:00:14;15.50;64.60
37956;DHT22;23776;51.592;7.180;2023-07-31T00:02:41;15.50;64.70
37956;DHT22;23776;51.592;7.180;2023-07-31T00:05:08;15.50;64.70
37956;DHT22;23776;51.592;7.180;2023-07-31T00:07:34;15.50;64.40
37956;DHT22;23776;51.592;7.180;2023-07-31T00:09:59;18.50;66.50
37956;DHT22;23776;51.592;7.180;2023-07-31T00:12:25;15.50;64.40
37956;DHT22;23776;51.592;7.180;2023-07-31T00:14:51;15.50;64.90
37956;DHT22;23776;51.592;7.180;2023-07-31T00:17:17;15.60;64.50
37956;DHT22;23776;51.592;7.180;2023-07-31T00:19:42;15.50;64.50
37956;DHT22;23776;51.592;7.180;2023-07-31T00:22:08;15.60;65.00
37956;DHT22;23776;51.592;7.180;2023-07-31T00:24:33;15.60;65.10
37956;DHT22;23776;51.592;7.180;2023-07-31T00:26:59;15.60;64.70
37956;DHT22;23776;51.592;7.180;2023-07-31T00:29:24;15.50;64.70
37956;DHT22;23776;51.592;7.180;2023-07-31T00:31:50;15.50;65.20
37956;DHT22;23776;51.592;7.180;2023-07-31T00:34:15;15.50;65.00
37956;DHT22;23776;51.592;7.180;2023-07-31T00:36:41;15.50;65.00
37956;DHT22;23776;51.592;7.180;2023-07-31T00:39:07;15.40;64.50
37956;DHT22;23776;51.592;7.180;2023-07-31T00:41:32;15.60;64.30
37956;DHT22;23776;51.592;7.180;2023-07-31T00:43:58;15.50;64.70
37956;DHT22;23776;51.592;7.180;2023-07-31T00:46:23;15.70;64.20
37956;DHT22;23776;51.592;7.180;2023-07-31T00:48:49;15.70;64.30
37956;DHT22;23776;51.592;7.180;2023-07-31T00:51:15;15.70;64.80
37956;DHT22;23776;51.592;7.180;2023-07-31T00:53:41;15.80;64.70
37956;DHT22;23776;51.592;7.180;2023-07-31T00:56:08;15.80;64.70
37956;DHT22;23776;51.592;7.180;2023-07-31T00:58:34;15.90;64.50
37956;DHT22;23776;51.592;7.180;2023-07-31T01:01:00;15.90;65.20
37956;DHT22;23776;51.592;7.180;2023-07-31T01:03:25;15.90;65.70
37956;DHT22;23776;51.592;7.180;2023-07-31T01:11:28;15.90;65.80
37956;DHT22;23776;51.592;7.180;2023-07-31T01:13:55;15.90;65.40
37956;DHT22;23776;51.592;7.180;2023-07-31T01:16:21;15.90;65.20
37956;DHT22;23776;51.592;7.180;2023-07-31T01:18:46;15.90;65.20
37956;DHT22;23776;51.592;7.180;2023-07-31T01:26:38;15.90;66.50
37956;DHT22;23776;51.592;7.180;2023-07-31T01:29:20;15.90;67.40
37956;DHT22;23776;51.592;7.180;2023-07-31T01:31:50;15.80;67.80
37956;DHT22;23776;51.592;7.180;2023-07-31T01:34:17;15.90;67.60
37956;DHT22;23776;51.592;7.180;2023-07-31T01:36:44;15.90;67.40
37956;DHT22;23776;51.592;7.180;2023-07-31T01:39:09;15.90;67.60
37956;DHT22;23776;51.592;7.180;2023-07-31T01:41:35;15.90;67.70
37956;DHT22;23776;51.592;7.180;2023-07-31T01:44:00;15.90;67.90
37956;DHT22;23776;51.592;7.180;2023-07-31T01:46:26;15.90;67.80
37956;DHT22;23776;51.592;7.180;2023-07-31T01:48:51;15.90;68.00
37956;DHT22;23776;51.592;7.180;2023-07-31T01:51:17;15.90;68.50
37956;DHT22;23776;51.592;7.180;2023-07-31T01:53:42;15.90;68.60
37956;DHT22;23776;51.592;7.180;2023-07-31T01:56:08;15.90;68.90
37956;DHT22;23776;51.592;7.180;2023-07-31T01:58:34;15.90;68.60
37956;DHT22;23776;51.592;7.180;2023-07-31T02:03:25;15.90;68.60
37956;DHT22;23776;51.592;7.180;2023-07-31T02:05:51;15.90;69.10
37956;DHT22;23776;51.592;7.180;2023-07-31T02:08:16;15.80;68.50
37956;DHT22;23776;51.592;7.180;2023-07-31T02:10:42;15.80;69.00
37956;DHT22;23776;51.592;7.180;2023-07-31T02:13:08;15.90;69.10
37956;DHT22;23776;51.592;7.180;2023-07-31T02:15:34;15.80;68.90
37956;DHT22;23776;51.592;7.180;2023-07-31T02:17:59;19.50;70.60
37956;DHT22;23776;51.592;7.180;2023-07-31T02:20:25;15.80;68.90
37956;DHT22;23776;51.592;7.180;2023-07-31T02:22:50;15.80;68.90
37956;DHT22;23776;51.592;7.180;2023-07-31T02:25:16;15.90;69.00
37956;DHT22;23776;51.592;7.180;2023-07-31T02:27:42;15.80;68.30
37956;DHT22;23776;51.592;7.180;2023-07-31T02:30:08;15.70;68.10
37956;DHT22;23776;51.592;7.180;2023-07-31T02:32:34;15.80;68.60
37956;DHT22;23776;51.592;7.180;2023-07-31T02:34:59;15.80;67.90
37956;DHT22;23776;51.592;7.180;2023-07-31T02:37:25;15.70;67.50
37956;DHT22;23776;51.592;7.180;2023-07-31T02:39:51;15.80;68.10
37956;DHT22;23776;51.592;7.180;2023-07-31T02:42:17;15.80;67.50
37956;DHT22;23776;51.592;7.180;2023-07-31T02:44:42;15.80;67.20
37956;DHT22;23776;51.592;7.180;2023-07-31T02:47:08;15.80;65.50
37956;DHT22;23776;51.592;7.180;2023-07-31T02:49:34;15.80;65.90
37956;DHT22;23776;51.592;7.180;2023-07-31T02:51:59;15.80;65.60
37956;DHT22;23776;51.592;7.180;2023-07-31T02:54:25;15.90;63.50
37956;DHT22;23776;51.592;7.180;2023-07-31T02:56:51;15.90;63.70
37956;DHT22;23776;51.592;7.180;2023-07-31T02:59:17;15.80;64.00
37956;DHT22;23776;51.592;7.180;2023-07-31T03:01:43;15.80;60.50
37956;DHT22;23776;51.592;7.180;2023-07-31T03:04:09;15.90;59.10
37956;DHT22;23776;51.592;7.180;2023-07-31T03:06:34;15.80;57.20
37956;DHT22;23776;51.592;7.180;2023-07-31T03:09:00;15.80;56.80
37956;DHT22;23776;51.592;7.180;2023-07-31T03:11:25;15.90;58.40
37956;DHT22;23776;51.592;7.180;2023-07-31T03:13:51;15.90;50.40
37956;DHT22;23776;51.592;7.180;2023-07-31T03:16:16;15.90;40.00
37956;DHT22;23776;51.592;7.180;2023-07-31T03:18:42;15.90;41.40
37956;DHT22;23776;51.592;7.180;2023-07-31T03:21:07;15.90;43.60
37956;DHT22;23776;51.592;7.180;2023-07-31T03:23:33;15.80;27.70
37956;DHT22;23776;51.592;7.180;2023-07-31T03:26:07;15.80;25.10
37956;DHT22;23776;51.592;7.180;2023-07-31T03:28:33;15.80;26.90
37956;DHT22;23776;51.592;7.180;2023-07-31T03:30:59;15.90;31.60
37956;DHT22;23776;51.592;7.180;2023-07-31T03:33:25;15.90;29.40
37956;DHT22;23776;51.592;7.180;2023-07-31T03:35:51;15.90;24.50
37956;DHT22;23776;51.592;7.180;2023-07-31T03:38:17;16.00;25.50
37956;DHT22;23776;51.592;7.180;2023-07-31T03:40:42;15.90;24.40
37956;DHT22;23776;51.592;7.180;2023-07-31T03:43:08;16.00;19.30
37956;DHT22;23776;51.592;7.180;2023-07-31T03:45:33;15.90;19.80
37956;DHT22;23776;51.592;7.180;2023-07-31T03:47:59;16.00;20.70
37956;DHT22;23776;51.592;7.180;2023-07-31T03:50:25;16.00;18.40
37956;DHT22;23776;51.592;7.180;2023-07-31T03:52:50;16.00;21.20
37956;DHT22;23776;51.592;7.180;2023-07-31T03:55:16;16.00;19.10
37956;DHT22;23776;51.592;7.180;2023-07-31T03:57:42;16.00;18.80
37956;DHT22;23776;51.592;7.180;2023-07-31T04:00:07;16.00;19.60
37956;DHT22;23776;51.592;7.180;2023-07-31T04:02:33;16.00;22.10
37956;DHT22;23776;51.592;7.180;2023-07-31T04:04:59;16.00;18.00
37956;DHT22;23776;51.592;7.180;2023-07-31T04:07:24;16.10;19.10
37956;DHT22;23776;51.592;7.180;2023-07-31T04:09:50;16.10;18.30
37956;DHT22;23776;51.592;7.180;2023-07-31T04:12:15;16.10;15.50
37956;DHT22;23776;51.592;7.180;2023-07-31T04:14:41;16.10;13.30
37956;DHT22;23776;51.592;7.180;2023-07-31T04:17:06;16.20;6.20
37956;DHT22;23776;51.592;7.180;2023-07-31T04:19:32;16.20;7.30
37956;DHT22;23776;51.592;7.180;2023-07-31T04:21:57;16.30;9.70
37956;DHT22;23776;51.592;7.180;2023-07-31T04:24:23;16.30;7.40
37956;DHT22;23776;51.592;7.180;2023-07-31T04:26:52;16.30;3.10
37956;DHT22;23776;51.592;7.180;2023-07-31T04:29:18;16.30;1.00
37956;DHT22;23776;51.592;7.180;2023-07-31T04:31:43;16.30;1.00
37956;DHT22;23776;51.592;7.180;2023-07-31T04:34:09;16.30;1.00
37956;DHT22;23776;51.592;7.180;2023-07-31T04:36:35;16.40;1.00
37956;DHT22;23776;51.592;7.180;2023-07-31T04:39:01;16.40;1.00
37956;DHT22;23776;51.592;7.180;2023-07-31T04:41:26;16.30;1.00
37956;DHT22;23776;51.592;7.180;2023-07-31T04:43:52;16.40;1.00
37956;DHT22;23776;51.592;7.180;2023-07-31T04:46:18;16.40;1.00
37956;DHT22;23776;51.592;7.180;2023-07-31T04:48:43;16.50;1.00
37956;DHT22;23776;51.592;7.180;2023-07-31T04:51:09;16.50;1.00
37956;DHT22;23776;51.592;7.180;2023-07-31T04:53:35;16.50;1.00
37956;DHT22;23776;51.592;7.180;2023-07-31T04:56:01;16.50;1.00
37956;DHT22;23776;51.592;7.180;2023-07-31T04:58:26;16.50;1.00
37956;DHT22;23776;51.592;7.180;2023-07-31T05:00:52;16.50;1.00
37956;DHT22;23776;51.592;7.180;2023-07-31T05:05:43;16.50;2.20
37956;DHT22;23776;51.592;7.180;2023-07-31T05:08:09;16.40;13.80
37956;DHT22;23776;51.592;7.180;2023-07-31T05:10:35;16.40;15.00
37956;DHT22;23776;51.592;7.180;2023-07-31T05:13:00;16.40;16.80
37956;DHT22;23776;51.592;7.180;2023-07-31T05:15:26;16.40;15.40
37956;DHT22;23776;51.592;7.180;2023-07-31T05:17:52;16.40;18.90
37956;DHT22;23776;51.592;7.180;2023-07-31T05:20:17;16.40;11.40
37956;DHT22;23776;51.592;7.180;2023-07-31T05:22:43;16.50;12.90
37956;DHT22;23776;51.592;7.180;2023-07-31T05:25:08;16.50;15.50
37956;DHT22;23776;51.592;7.180;2023-07-31T05:27:34;16.60;11.60
37956;DHT22;23776;51.592;7.180;2023-07-31T05:30:00;16.60;12.00
37956;DHT22;23776;51.592;7.180;2023-07-31T05:32:25;16.70;8.70
37956;DHT22;23776;51.592;7.180;2023-07-31T05:34:52;16.70;11.10
37956;DHT22;23776;51.592;7.180;2023-07-31T05:37:18;16.70;5.80
37956;DHT22;23776;51.592;7.180;2023-07-31T05:39:44;16.70;7.00
37956;DHT22;23776;51.592;7.180;2023-07-31T05:42:09;17.80;7.40
37956;DHT22;23776;51.592;7.180;2023-07-31T05:44:35;16.70;7.20
37956;DHT22;23776;51.592;7.180;2023-07-31T05:47:01;16.60;9.00
37956;DHT22;23776;51.592;7.180;2023-07-31T05:49:26;16.60;10.40
37956;DHT22;23776;51.592;7.180;2023-07-31T05:51:52;16.60;25.60
37956;DHT22;23776;51.592;7.180;2023-07-31T05:54:17;16.50;34.10
37956;DHT22;23776;51.592;7.180;2023-07-31T05:56:43;16.40;38.90
37956;DHT22;23776;51.592;7.180;2023-07-31T05:59:11;16.20;51.00
37956;DHT22;23776;51.592;7.180;2023-07-31T06:01:37;16.20;52.60
37956;DHT22;23776;51.592;7.180;2023-07-31T06:04:03;16.20;53.60
37956;DHT22;23776;51.592;7.180;2023-07-31T06:06:28;16.20;53.90
37956;DHT22;23776;51.592;7.180;2023-07-31T06:08:54;16.20;58.40
37956;DHT22;23776;51.592;7.180;2023-07-31T06:11:21;16.20;60.30
37956;DHT22;23776;51.592;7.180;2023-07-31T06:13:46;16.10;61.50
37956;DHT22;23776;51.592;7.180;2023-07-31T06:16:13;16.20;63.70
37956;DHT22;23776;51.592;7.180;2023-07-31T06:18:39;16.20;63.60
37956;DHT22;23776;51.592;7.180;2023-07-31T06:21:05;16.20;64.30
37956;DHT22;23776;51.592;7.180;2023-07-31T06:23:31;16.20;64.60
37956;DHT22;23776;51.592;7.180;2023-07-31T06:25:56;16.20;64.60
37956;DHT22;23776;51.592;7.180;2023-07-31T06:28:27;16.20;65.50
37956;DHT22;23776;51.592;7.180;2023-07-31T06:30:54;16.20;67.00
37956;DHT22;23776;51.592;7.180;2023-07-31T06:33:19;16.20;66.60
37956;DHT22;23776;51.592;7.180;2023-07-31T06:35:45;16.20;67.20
37956;DHT22;23776;51.592;7.180;2023-07-31T06:38:11;16.30;67.20
37956;DHT22;23776;51.592;7.180;2023-07-31T06:40:36;16.30;67.80
37956;DHT22;23776;51.592;7.180;2023-07-31T06:43:02;16.30;68.70
37956;DHT22;23776;51.592;7.180;2023-07-31T06:45:34;16.30;69.90
37956;DHT22;23776;51.592;7.180;2023-07-31T06:48:00;16.30;69.40
37956;DHT22;23776;51.592;7.180;2023-07-31T06:50:28;16.30;70.20
37956;DHT22;23776;51.592;7.180;2023-07-31T06:52:53;16.30;70.20
37956;DHT22;23776;51.592;7.180;2023-07-31T06:55:20;16.30;70.60
37956;DHT22;23776;51.592;7.180;2023-07-31T06:57:48;16.40;70.20
37956;DHT22;23776;51.592;7.180;2023-07-31T07:00:13;16.40;70.60
37956;DHT22;23776;51.592;7.180;2023-07-31T07:02:39;16.40;70.70
37956;DHT22;23776;51.592;7.180;2023-07-31T07:05:06;16.40;70.40
37956;DHT22;23776;51.592;7.180;2023-07-31T07:07:32;16.50;70.60
37956;DHT22;23776;51.592;7.180;2023-07-31T07:09:58;16.50;70.40
37956;DHT22;23776;51.592;7.180;2023-07-31T07:12:29;16.50;70.00
37956;DHT22;23776;51.592;7.180;2023-07-31T07:14:54;16.50;69.50
37956;DHT22;23776;51.592;7.180;2023-07-31T07:17:20;16.50;70.00
37956;DHT22;23776;51.592;7.180;2023-07-31T07:19:48;16.50;70.70
37956;DHT22;23776;51.592;7.180;2023-07-31T07:22:13;16.50;70.30
37956;DHT22;23776;51.592;7.180;2023-07-31T07:24:39;16.50;70.70
37956;DHT22;23776;51.592;7.180;2023-07-31T07:27:05;16.60;70.60
37956;DHT22;23776;51.592;7.180;2023-07-31T07:29:31;16.50;71.10
37956;DHT22;23776;51.592;7.180;2023-07-31T07:31:57;16.50;71.60
37956;DHT22;23776;51.592;7.180;2023-07-31T07:34:25;16.50;70.50
37956;DHT22;23776;51.592;7.180;2023-07-31T07:36:50;16.50;70.30
37956;DHT22;23776;51.592;7.180;2023-07-31T07:41:42;16.50;69.70
37956;DHT22;23776;51.592;7.180;2023-07-31T07:44:08;16.50;70.80
37956;DHT22;23776;51.592;7.180;2023-07-31T07:46:33;16.50;71.00
37956;DHT22;23776;51.592;7.180;2023-07-31T07:48:59;16.50;70.80
37956;DHT22;23776;51.592;7.180;2023-07-31T07:51:25;16.40;70.70
37956;DHT22;23776;51.592;7.180;2023-07-31T07:53:50;16.40;71.10
37956;DHT22;23776;51.592;7.180;2023-07-31T07:56:16;16.40;71.40
37956;DHT22;23776;51.592;7.180;2023-07-31T07:58:41;16.40;70.70
37956;DHT22;23776;51.592;7.180;2023-07-31T08:01:07;16.40;71.00
37956;DHT22;23776;51.592;7.180;2023-07-31T08:03:32;16.40;70.90
37956;DHT22;23776;51.592;7.180;2023-07-31T08:06:01;16.50;71.20
37956;DHT22;23776;51.592;7.180;2023-07-31T08:08:28;16.50;71.20
37956;DHT22;23776;51.592;7.180;2023-07-31T08:10:54;16.60;71.30
37956;DHT22;23776;51.592;7.180;2023-07-31T08:13:19;16.60;72.30
37956;DHT22;23776;51.592;7.180;2023-07-31T08:15:45;16.70;72.00
37956;DHT22;23776;51.592;7.180;2023-07-31T08:18:11;16.60;69.50
37956;DHT22;23776;51.592;7.180;2023-07-31T08:20:37;16.60;70.80
37956;DHT22;23776;51.592;7.180;2023-07-31T08:23:03;16.60;70.00
37956;DHT22;23776;51.592;7.180;2023-07-31T08:25:29;16.60;70.50
37956;DHT22;23776;51.592;7.180;2023-07-31T08:27:54;16.60;70.40
37956;DHT22;23776;51.592;7.180;2023-07-31T08:30:21;16.60;70.90
37956;DHT22;23776;51.592;7.180;2023-07-31T08:32:46;16.60;71.40
37956;DHT22;23776;51.592;7.180;2023-07-31T08:35:12;16.70;71.30
37956;DHT22;23776;51.592;7.180;2023-07-31T08:37:38;16.70;70.80
37956;DHT22;23776;51.592;7.180;2023-07-31T08:40:05;16.60;67.80
37956;DHT22;23776;51.592;7.180;2023-07-31T08:42:31;16.60;68.30
37956;DHT22;23776;51.592;7.180;2023-07-31T08:44:58;16.70;69.50
37956;DHT22;23776;51.592;7.180;2023-07-31T08:47:26;16.60;66.90
37956;DHT22;23776;51.592;7.180;2023-07-31T08:49:53;16.70;67.50
37956;DHT22;23776;51.592;7.180;2023-07-31T08:52:19;16.60;67.30
37956;DHT22;23776;51.592;7.180;2023-07-31T08:54:45;16.50;67.40
37956;DHT22;23776;51.592;7.180;2023-07-31T08:57:11;16.40;67.00
37956;DHT22;23776;51.592;7.180;2023-07-31T08:59:38;16.50;68.30
37956;DHT22;23776;51.592;7.180;2023-07-31T09:02:08;16.40;68.20
37956;DHT22;23776;51.592;7.180;2023-07-31T09:04:34;16.40;68.60
37956;DHT22;23776;51.592;7.180;2023-07-31T09:07:02;16.40;69.40
37956;DHT22;23776;51.592;7.180;2023-07-31T09:09:30;16.40;70.10
37956;DHT22;23776;51.592;7.180;2023-07-31T09:11:57;16.40;70.70
37956;DHT22;23776;51.592;7.180;2023-07-31T09:14:25;13.40;69.10
37956;DHT22;23776;51.592;7.180;2023-07-31T09:16:58;16.50;71.40
37956;DHT22;23776;51.592;7.180;2023-07-31T09:19:35;16.60;70.90
37956;DHT22;23776;51.592;7.180;2023-07-31T09:22:05;16.50;71.00
37956;DHT22;23776;51.592;7.180;2023-07-31T09:24:32;16.50;70.90
37956;DHT22;23776;51.592;7.180;2023-07-31T09:26:59;16.50;70.60
37956;DHT22;23776;51.592;7.180;2023-07-31T09:29:26;16.40;69.80
37956;DHT22;23776;51.592;7.180;2023-07-31T09:31:53;16.40;70.00
37956;DHT22;23776;51.592;7.180;2023-07-31T09:34:19;16.40;70.50
37956;DHT22;23776;51.592;7.180;2023-07-31T09:36:49;19.70;73.00
37956;DHT22;23776;51.592;7.180;2023-07-31T09:39:17;16.40;69.00
37956;DHT22;23776;51.592;7.180;2023-07-31T09:41:46;16.40;69.90
37956;DHT22;23776;51.592;7.180;2023-07-31T09:44:12;16.40;70.40
37956;DHT22;23776;51.592;7.180;2023-07-31T09:46:38;16.50;69.30
37956;DHT22;23776;51.592;7.180;2023-07-31T09:49:11;16.50;70.40
37956;DHT22;23776;51.592;7.180;2023-07-31T09:51:38;13.00;67.80
37956;DHT22;23776;51.592;7.180;2023-07-31T09:54:10;16.60;70.20
37956;DHT22;23776;51.592;7.180;2023-07-31T09:56:49;16.70;70.60
37956;DHT22;23776;51.592;7.180;2023-07-31T09:59:16;16.70;70.80
37956;DHT22;23776;51.592;7.180;2023-07-31T10:01:44;16.70;70.80
37956;DHT22;23776;51.592;7.180;2023-07-31T10:04:11;16.80;71.70
37956;DHT22;23776;51.592;7.180;2023-07-31T10:06:37;16.90;70.40
37956;DHT22;23776;51.592;7.180;2023-07-31T10:09:08;16.90;70.50
37956;DHT22;23776;51.592;7.180;2023-07-31T10:11:43;16.90;70.40
37956;DHT22;23776;51.592;7.180;2023-07-31T10:14:25;16.90;70.20
37956;DHT22;23776;51.592;7.180;2023-07-31T10:19:18;16.90;70.50
37956;DHT22;23776;51.592;7.180;2023-07-31T10:21:44;17.00;70.60
37956;DHT22;23776;51.592;7.180;2023-07-31T10:24:11;17.00;69.50
37956;DHT22;23776;51.592;7.180;2023-07-31T10:26:38;17.00;70.50
37956;DHT22;23776;51.592;7.180;2023-07-31T10:29:05;17.00;70.40
37956;DHT22;23776;51.592;7.180;2023-07-31T10:31:32;17.10;71.30
37956;DHT22;23776;51.592;7.180;2023-07-31T10:33:59;17.10;71.30
37956;DHT22;23776;51.592;7.180;2023-07-31T10:36:26;17.00;69.60
37956;DHT22;23776;51.592;7.180;2023-07-31T10:38:52;17.00;69.10
37956;DHT22;23776;51.592;7.180;2023-07-31T10:41:18;17.00;70.00
37956;DHT22;23776;51.592;7.180;2023-07-31T10:43:46;17.00;69.40
37956;DHT22;23776;51.592;7.180;2023-07-31T10:46:12;17.00;70.20
37956;DHT22;23776;51.592;7.180;2023-07-31T10:48:39;17.00;70.50
37956;DHT22;23776;51.592;7.180;2023-07-31T10:51:10;19.60;70.70
37956;DHT22;23776;51.592;7.180;2023-07-31T10:53:36;16.90;69.70
37956;DHT22;23776;51.592;7.180;2023-07-31T10:56:07;16.90;70.10
37956;DHT22;23776;51.592;7.180;2023-07-31T10:58:33;16.90;70.70
37956;DHT22;23776;51.592;7.180;2023-07-31T11:01:02;16.80;70.90
37956;DHT22;23776;51.592;7.180;2023-07-31T11:03:48;16.80;71.30
37956;DHT22;23776;51.592;7.180;2023-07-31T11:06:15;16.80;71.90
37956;DHT22;23776;51.592;7.180;2023-07-31T11:08:43;16.90;71.80
37956;DHT22;23776;51.592;7.180;2023-07-31T11:11:12;16.90;71.40
37956;DHT22;23776;51.592;7.180;2023-07-31T11:13:42;17.00;72.00
37956;DHT22;23776;51.592;7.180;2023-07-31T11:16:09;17.00;69.30
37956;DHT22;23776;51.592;7.180;2023-07-31T11:18:35;17.00;70.00
37956;DHT22;23776;51.592;7.180;2023-07-31T11:21:01;17.00;70.40
37956;DHT22;23776;51.592;7.180;2023-07-31T11:23:26;17.00;70.90
37956;DHT22;23776;51.592;7.180;2023-07-31T11:25:52;17.10;71.30
37956;DHT22;23776;51.592;7.180;2023-07-31T11:28:19;17.00;69.10
37956;DHT22;23776;51.592;7.180;2023-07-31T11:30:45;17.10;70.60
37956;DHT22;23776;51.592;7.180;2023-07-31T11:33:13;17.00;71.20
37956;DHT22;23776;51.592;7.180;2023-07-31T11:35:47;17.10;69.70
37956;DHT22;23776;51.592;7.180;2023-07-31T11:41:01;17.20;70.40
37956;DHT22;23776;51.592;7.180;2023-07-31T11:43:28;17.20;67.70
37956;DHT22;23776;51.592;7.180;2023-07-31T11:45:58;17.20;68.90
37956;DHT22;23776;51.592;7.180;2023-07-31T11:48:27;17.30;68.40
37956;DHT22;23776;51.592;7.180;2023-07-31T11:50:54;17.40;65.50
37956;DHT22;23776;51.592;7.180;2023-07-31T11:53:36;17.20;61.90
37956;DHT22;23776;51.592;7.180;2023-07-31T11:56:04;17.30;65.00
37956;DHT22;23776;51.592;7.180;2023-07-31T11:58:32;17.40;68.30
37956;DHT22;23776;51.592;7.180;2023-07-31T12:00:59;17.50;68.50
37956;DHT22;23776;51.592;7.180;2023-07-31T12:03:25;17.60;67.60
37956;DHT22;23776;51.592;7.180;2023-07-31T12:05:53;17.60;62.80
37956;DHT22;23776;51.592;7.180;2023-07-31T12:08:21;17.70;66.10
37956;DHT22;23776;51.592;7.180;2023-07-31T12:10:46;17.70;64.50
37956;DHT22;23776;51.592;7.180;2023-07-31T12:13:25;17.70;62.00
37956;DHT22;23776;51.592;7.180;2023-07-31T12:15:56;17.70;61.70
37956;DHT22;23776;51.592;7.180;2023-07-31T12:18:24;17.60;58.20
37956;DHT22;23776;51.592;7.180;2023-07-31T12:20:55;17.70;60.90
37956;DHT22;23776;51.592;7.180;2023-07-31T12:23:25;17.70;62.70
37956;DHT22;23776;51.592;7.180;2023-07-31T12:28:38;17.80;60.90
37956;DHT22;23776;51.592;7.180;2023-07-31T12:31:04;17.80;55.80
37956;DHT22;23776;51.592;7.180;2023-07-31T12:33:31;17.70;56.70
37956;DHT22;23776;51.592;7.180;2023-07-31T12:36:00;18.10;59.50
37956;DHT22;23776;51.592;7.180;2023-07-31T12:38:26;17.60;58.90
37956;DHT22;23776;51.592;7.180;2023-07-31T12:40:51;17.70;57.90
37956;DHT22;23776;51.592;7.180;2023-07-31T12:43:17;17.60;59.90
37956;DHT22;23776;51.592;7.180;2023-07-31T12:45:42;17.60;57.50
37956;DHT22;23776;51.592;7.180;2023-07-31T12:48:08;17.60;59.30
37956;DHT22;23776;51.592;7.180;2023-07-31T12:50:34;17.50;61.60
37956;DHT22;23776;51.592;7.180;2023-07-31T12:53:02;19.00;63.00
37956;DHT22;23776;51.592;7.180;2023-07-31T12:55:28;17.70;64.00
37956;DHT22;23776;51.592;7.180;2023-07-31T12:57:55;17.70;60.50
37956;DHT22;23776;51.592;7.180;2023-07-31T13:00:22;17.80;61.60
37956;DHT22;23776;51.592;7.180;2023-07-31T13:02:47;17.80;57.00
37956;DHT22;23776;51.592;7.180;2023-07-31T13:05:13;17.90;54.30
37956;DHT22;23776;51.592;7.180;2023-07-31T13:07:39;18.10;38.60
37956;DHT22;23776;51.592;7.180;2023-07-31T13:10:06;18.20;33.20
37956;DHT22;23776;51.592;7.180;2023-07-31T13:12:32;18.20;33.90
37956;DHT22;23776;51.592;7.180;2023-07-31T13:14:58;20.30;30.80
37956;DHT22;23776;51.592;7.180;2023-07-31T13:17:23;18.20;16.50
37956;DHT22;23776;51.592;7.180;2023-07-31T13:19:49;18.30;21.80
37956;DHT22;23776;51.592;7.180;2023-07-31T13:22:14;18.20;19.60
37956;DHT22;23776;51.592;7.180;2023-07-31T13:24:40;18.20;17.80
37956;DHT22;23776;51.592;7.180;2023-07-31T13:27:06;18.10;19.50
37956;DHT22;23776;51.592;7.180;2023-07-31T13:29:31;18.10;21.20
37956;DHT22;23776;51.592;7.180;2023-07-31T13:31:57;18.20;27.30
37956;DHT22;23776;51.592;7.180;2023-07-31T13:34:23;18.10;23.80
37956;DHT22;23776;51.592;7.180;2023-07-31T13:36:48;18.20;24.40
37956;DHT22;23776;51.592;7.180;2023-07-31T13:39:14;18.20;25.00
37956;DHT22;23776;51.592;7.180;2023-07-31T13:41:39;18.30;32.80
37956;DHT22;23776;51.592;7.180;2023-07-31T13:44:05;18.30;33.20
37956;DHT22;23776;51.592;7.180;2023-07-31T13:46:31;18.40;20.30
37956;DHT22;23776;51.592;7.180;2023-07-31T13:49:00;18.40;9.60
37956;DHT22;23776;51.592;7.180;2023-07-31T13:51:26;18.40;9.50
37956;DHT22;23776;51.592;7.180;2023-07-31T13:53:53;18.30;14.10
37956;DHT22;23776;51.592;7.180;2023-07-31T13:56:19;18.30;16.00
37956;DHT22;23776;51.592;7.180;2023-07-31T13:58:44;17.10;4.70
37956;DHT22;23776;51.592;7.180;2023-07-31T14:01:10;18.30;11.10
37956;DHT22;23776;51.592;7.180;2023-07-31T14:03:36;18.20;10.00
37956;DHT22;23776;51.592;7.180;2023-07-31T14:06:01;18.20;9.40
37956;DHT22;23776;51.592;7.180;2023-07-31T14:08:27;18.20;16.80
37956;DHT22;23776;51.592;7.180;2023-07-31T14:10:54;18.20;17.70
37956;DHT22;23776;51.592;7.180;2023-07-31T14:13:20;18.30;12.60
37956;DHT22;23776;51.592;7.180;2023-07-31T14:15:45;18.40;16.50
37956;DHT22;23776;51.592;7.180;2023-07-31T14:20:37;18.50;8.90
37956;DHT22;23776;51.592;7.180;2023-07-31T14:23:04;18.50;3.30
37956;DHT22;23776;51.592;7.180;2023-07-31T14:25:29;18.40;1.00
37956;DHT22;23776;51.592;7.180;2023-07-31T14:27:55;18.40;3.20
37956;DHT22;23776;51.592;7.180;2023-07-31T14:30:20;18.50;6.30
37956;DHT22;23776;51.592;7.180;2023-07-31T14:32:47;18.60;1.00
37956;DHT22;23776;51.592;7.180;2023-07-31T14:35:12;18.80;2.00
37956;DHT22;23776;51.592;7.180;2023-07-31T14:37:42;18.90;1.00
37956;DHT22;23776;51.592;7.180;2023-07-31T14:40:10;19.00;1.00
37956;DHT22;23776;51.592;7.180;2023-07-31T14:42:36;19.10;1.00
37956;DHT22;23776;51.592;7.180;2023-07-31T14:45:06;19.00;1.00
37956;DHT22;23776;51.592;7.180;2023-07-31T14:47:32;19.00;1.00
37956;DHT22;23776;51.592;7.180;2023-07-31T14:49:58;19.00;1.00
37956;DHT22;23776;51.592;7.180;2023-07-31T14:52:24;19.00;1.00
37956;DHT22;23776;51.592;7.180;2023-07-31T14:54:50;19.00;1.00
37956;DHT22;23776;51.592;7.180;2023-07-31T14:59:42;18.90;1.00
37956;DHT22;23776;51.592;7.180;2023-07-31T15:02:09;18.80;1.00
37956;DHT22;23776;51.592;7.180;2023-07-31T15:04:35;18.80;1.00
37956;DHT22;23776;51.592;7.180;2023-07-31T15:07:01;18.80;1.00
37956;DHT22;23776;51.592;7.180;2023-07-31T15:09:27;18.70;1.00
37956;DHT22;23776;51.592;7.180;2023-07-31T15:11:53;20.40;1.00
37956;DHT22;23776;51.592;7.180;2023-07-31T15:14:19;18.70;1.00
37956;DHT22;23776;51.592;7.180;2023-07-31T15:16:45;18.70;1.00
37956;DHT22;23776;51.592;7.180;2023-07-31T15:19:11;18.60;1.00
37956;DHT22;23776;51.592;7.180;2023-07-31T15:21:37;18.60;1.00
37956;DHT22;23776;51.592;7.180;2023-07-31T15:24:03;18.60;1.00
37956;DHT22;23776;51.592;7.180;2023-07-31T15:26:28;18.60;1.00
37956;DHT22;23776;51.592;7.180;2023-07-31T15:29:04;18.60;1.00
37956;DHT22;23776;51.592;7.180;2023-07-31T15:31:34;18.60;1.00
37956;DHT22;23776;51.592;7.180;2023-07-31T15:33:59;18.50;1.00
37956;DHT22;23776;51.592;7.180;2023-07-31T15:36:25;18.50;1.00
37956;DHT22;23776;51.592;7.180;2023-07-31T15:38:50;18.40;1.00
37956;DHT22;23776;51.592;7.180;2023-07-31T15:41:17;18.30;1.00
37956;DHT22;23776;51.592;7.180;2023-07-31T15:43:43;18.30;1.00
37956;DHT22;23776;51.592;7.180;2023-07-31T15:46:09;18.40;1.00
37956;DHT22;23776;51.592;7.180;2023-07-31T15:48:34;18.40;1.00
37956;DHT22;23776;51.592;7.180;2023-07-31T15:51:00;18.40;1.00
37956;DHT22;23776;51.592;7.180;2023-07-31T15:53:28;18.40;1.00
37956;DHT22;23776;51.592;7.180;2023-07-31T15:55:54;18.30;1.00
37956;DHT22;23776;51.592;7.180;2023-07-31T15:58:20;18.40;1.00